Time;durP1;ratioP1;P1;durP2;ratioP2;P2;SDS_P1;SDS_P2;PMS_P1;PMS_P2;Temp;Humidity;BMP_temperature;BMP_pressure;BME280_temperature;BME280_humidity;BME280_pressure;Samples;Min_cycle;Max_cycle;Signal;HPM_P1;HPM_P2
2022/04/03 00:01:59;;;;;;;5.90;3.27;;;4.20;99.90;;;;;;5138995;28;20354;-78
2022/04/03 00:04:44;;;;;;;4.80;3.80;;;4.20;99.90;;;;;;5138956;28;20458;-78
2022/04/03 00:07:29;;;;;;;9.17;4.43;;;4.20;99.90;;;;;;5139128;28;20369;-79
2022/04/03 00:10:14;;;;;;;4.53;3.53;;;4.20;99.90;;;;;;5124095;28;20459;-79
2022/04/03 00:13:02;;;;;;;4.50;4.00;;;4.20;99.90;;;;;;5123838;28;20366;-79
2022/04/03 00:15:57;;;;;;;3.50;3.30;;;4.20;99.90;;;;;;5109980;28;20426;-78
2022/04/03 00:18:42;;;;;;;4.23;3.93;;;4.10;99.90;;;;;;5125598;28;20366;-78
2022/04/03 00:21:27;;;;;;;3.70;3.23;;;4.10;99.90;;;;;;5121010;28;20362;-79
2022/04/03 00:24:11;;;;;;;5.43;2.73;;;4.10;99.90;;;;;;5134775;27;20550;-78
2022/04/03 00:26:55;;;;;;;4.00;3.70;;;4.10;99.90;;;;;;5121715;28;20374;-79
2022/04/03 00:29:40;;;;;;;6.30;3.90;;;4.10;99.90;;;;;;5136481;28;20379;-79
2022/04/03 00:32:24;;;;;;;3.30;3.00;;;4.10;99.90;;;;;;5121183;28;20411;-79
2022/04/03 00:35:09;;;;;;;4.77;3.47;;;4.10;99.90;;;;;;5121395;28;20397;-79
2022/04/03 00:37:54;;;;;;;3.33;3.03;;;4.00;99.90;;;;;;5128476;28;20386;-79
2022/04/03 00:40:38;;;;;;;3.20;3.00;;;4.00;99.90;;;;;;5127461;28;20743;-78
2022/04/03 00:43:30;;;;;;;3.43;3.17;;;4.00;99.90;;;;;;5127471;28;20377;-78
2022/04/03 00:46:18;;;;;;;5.07;2.57;;;4.00;99.90;;;;;;5127153;28;20437;-78
2022/04/03 00:49:05;;;;;;;4.40;3.13;;;4.00;99.90;;;;;;5127000;28;20357;-78
2022/04/03 00:51:49;;;;;;;3.30;2.87;;;4.00;99.90;;;;;;5096101;28;20515;-78
2022/04/03 00:54:36;;;;;;;2.93;2.40;;;4.00;99.90;;;;;;5127614;28;20413;-78
2022/04/03 00:57:22;;;;;;;4.20;2.50;;;3.90;99.90;;;;;;5126774;28;20417;-78
2022/04/03 01:00:08;;;;;;;3.10;2.80;;;3.90;99.90;;;;;;5126355;28;20690;-79
2022/04/03 01:02:52;;;;;;;3.80;2.97;;;3.90;99.90;;;;;;5134994;28;20764;-79
2022/04/03 01:05:37;;;;;;;2.83;2.60;;;3.90;99.90;;;;;;5136597;28;20453;-78
2022/04/03 01:08:25;;;;;;;2.90;2.50;;;3.90;99.90;;;;;;5130102;28;20799;-77
2022/04/03 01:11:14;;;;;;;3.47;3.17;;;3.90;99.90;;;;;;5119583;28;20431;-79
2022/04/03 01:14:01;;;;;;;6.70;3.30;;;3.90;99.90;;;;;;5119579;28;20429;-79
2022/04/03 01:16:46;;;;;;;4.03;2.87;;;3.90;99.90;;;;;;5121319;28;20414;-79
2022/04/03 01:19:31;;;;;;;5.33;3.17;;;3.90;99.90;;;;;;5133322;28;20378;-79
2022/04/03 01:22:16;;;;;;;3.53;2.80;;;3.90;99.90;;;;;;5128643;28;20405;-79
2022/04/03 01:25:00;;;;;;;4.43;3.10;;;3.90;99.90;;;;;;5127579;28;20442;-79
2022/04/03 01:27:46;;;;;;;3.77;2.80;;;3.80;99.90;;;;;;5128801;28;20381;-79
2022/04/03 01:30:30;;;;;;;5.70;2.90;;;3.80;99.90;;;;;;5127673;28;20422;-79
2022/04/03 01:33:16;;;;;;;4.57;3.10;;;3.70;99.90;;;;;;5125610;28;20740;-79
2022/04/03 01:36:00;;;;;;;3.77;3.33;;;3.70;99.90;;;;;;5127864;28;20472;-79
2022/04/03 01:38:46;;;;;;;2.80;2.37;;;3.70;99.90;;;;;;5116787;28;20361;-79
2022/04/03 01:41:30;;;;;;;2.60;2.40;;;3.70;99.90;;;;;;5133134;28;20452;-78
2022/04/03 01:44:15;;;;;;;5.13;3.13;;;3.70;99.90;;;;;;5128506;28;20464;-78
2022/04/03 01:47:01;;;;;;;2.63;2.43;;;3.70;99.90;;;;;;5107838;28;20426;-78
2022/04/03 01:49:45;;;;;;;3.60;2.70;;;3.60;99.90;;;;;;5122207;28;20383;-79
2022/04/03 01:52:30;;;;;;;2.93;2.73;;;3.60;99.90;;;;;;5121759;28;20380;-78
2022/04/03 01:55:14;;;;;;;1.77;1.67;;;3.60;99.90;;;;;;5122082;28;20409;-78
2022/04/03 01:58:00;;;;;;;2.60;2.40;;;3.50;99.90;;;;;;5106423;28;20375;-78
2022/04/03 02:00:45;;;;;;;4.60;2.33;;;3.50;99.90;;;;;;5106551;28;20392;-78
2022/04/03 02:03:30;;;;;;;3.03;2.73;;;3.30;99.90;;;;;;5121320;28;20387;-78
2022/04/03 02:06:15;;;;;;;4.13;2.80;;;3.40;99.90;;;;;;5122081;28;20428;-78
2022/04/03 02:09:02;;;;;;;3.37;2.83;;;3.30;99.90;;;;;;5105556;28;20345;-78
2022/04/03 02:11:46;;;;;;;3.77;2.57;;;3.30;99.90;;;;;;5120996;28;20400;-78
2022/04/03 02:14:31;;;;;;;2.70;2.50;;;3.30;99.90;;;;;;5121547;28;20408;-78
2022/04/03 02:17:19;;;;;;;6.10;3.23;;;3.30;99.90;;;;;;5106273;28;20379;-78
2022/04/03 02:20:05;;;;;;;2.57;2.37;;;3.40;99.90;;;;;;5122866;28;20399;-78
2022/04/03 02:22:49;;;;;;;4.47;2.90;;;3.40;99.90;;;;;;5124152;28;20361;-79
2022/04/03 02:25:33;;;;;;;3.90;2.23;;;3.40;99.90;;;;;;5132912;28;20449;-79
2022/04/03 02:28:18;;;;;;;2.30;2.10;;;3.40;99.90;;;;;;5078213;28;20367;-79
2022/04/03 02:31:02;;;;;;;2.57;2.27;;;3.30;99.90;;;;;;5075598;28;20382;-79
2022/04/03 02:33:47;;;;;;;2.27;2.07;;;3.20;99.90;;;;;;5088307;28;20384;-79
2022/04/03 02:36:32;;;;;;;2.93;2.73;;;3.30;99.90;;;;;;5054802;28;20388;-80
2022/04/03 02:39:16;;;;;;;3.30;2.67;;;3.30;99.90;;;;;;5088540;28;20389;-78
2022/04/03 02:42:01;;;;;;;2.70;2.20;;;3.20;99.90;;;;;;5089666;28;20513;-78
2022/04/03 02:44:46;;;;;;;2.93;2.57;;;3.30;99.90;;;;;;5081799;28;20487;-79
2022/04/03 02:47:30;;;;;;;5.87;3.20;;;3.20;99.90;;;;;;5081932;28;20418;-79
2022/04/03 02:50:17;;;;;;;2.47;2.27;;;3.20;99.90;;;;;;5085171;28;20729;-79
2022/04/03 02:53:01;;;;;;;4.67;3.40;;;3.20;99.90;;;;;;5077906;28;20917;-78
2022/04/03 02:55:45;;;;;;;3.13;2.50;;;3.30;99.90;;;;;;5067371;28;20530;-79
2022/04/03 02:58:30;;;;;;;4.60;2.87;;;3.30;99.90;;;;;;5087601;28;20479;-79
2022/04/03 03:01:15;;;;;;;2.90;2.70;;;3.30;99.90;;;;;;5137421;28;20417;-79
2022/04/03 03:03:59;;;;;;;2.60;2.40;;;3.20;99.90;;;;;;5123478;28;20505;-79
2022/04/03 03:06:45;;;;;;;3.87;2.30;;;3.20;99.90;;;;;;5138768;28;20444;-78
2022/04/03 03:09:30;;;;;;;4.60;2.93;;;3.20;99.90;;;;;;5137226;28;20512;-78
2022/04/03 03:12:15;;;;;;;4.80;3.50;;;3.20;99.90;;;;;;5133336;28;20403;-78
2022/04/03 03:15:00;;;;;;;2.97;2.47;;;3.20;99.90;;;;;;5136204;28;20399;-79
2022/04/03 03:17:46;;;;;;;5.27;2.83;;;3.10;99.90;;;;;;5138202;28;20401;-79
2022/04/03 03:20:31;;;;;;;2.70;2.23;;;3.10;99.90;;;;;;5137878;28;20402;-79
2022/04/03 03:23:16;;;;;;;2.37;2.17;;;3.10;99.90;;;;;;5120025;28;20399;-79
2022/04/03 03:26:00;;;;;;;3.27;2.87;;;3.10;99.90;;;;;;5135570;28;20384;-78
2022/04/03 03:28:46;;;;;;;2.87;2.50;;;3.10;99.90;;;;;;5132711;28;20373;-79
2022/04/03 03:31:31;;;;;;;2.87;2.57;;;3.00;99.90;;;;;;5115784;28;20367;-79
2022/04/03 03:34:18;;;;;;;1.80;1.70;;;3.00;99.90;;;;;;5111929;28;20407;-79
2022/04/03 03:37:03;;;;;;;2.60;2.40;;;3.00;99.90;;;;;;5129000;28;20452;-79
2022/04/03 03:39:48;;;;;;;3.10;2.53;;;3.00;99.90;;;;;;5131615;28;20896;-79
2022/04/03 03:42:33;;;;;;;4.17;2.60;;;3.00;99.90;;;;;;5131671;28;20390;-79
2022/04/03 03:45:18;;;;;;;2.90;2.60;;;3.00;99.90;;;;;;5121789;28;20466;-78
2022/04/03 03:48:03;;;;;;;2.97;2.77;;;2.90;99.90;;;;;;5107778;28;20374;-79
2022/04/03 03:50:51;;;;;;;2.07;1.93;;;3.00;99.90;;;;;;5110602;28;20358;-79
2022/04/03 03:53:36;;;;;;;2.90;1.70;;;3.00;99.90;;;;;;5109741;28;20376;-79
2022/04/03 03:56:20;;;;;;;2.70;2.50;;;2.90;99.90;;;;;;5110255;28;20421;-79
2022/04/03 03:59:06;;;;;;;2.00;1.90;;;2.90;99.90;;;;;;5095615;28;20379;-79
2022/04/03 04:01:53;;;;;;;4.30;3.90;;;2.80;99.90;;;;;;5114985;28;20383;-79
2022/04/03 04:04:38;;;;;;;2.73;2.20;;;2.80;99.90;;;;;;5115211;28;20512;-79
2022/04/03 04:07:36;;;;;;;2.90;2.70;;;2.80;99.90;;;;;;5100286;28;20392;-78
2022/04/03 04:10:20;;;;;;;5.45;3.00;;;2.80;99.90;;;;;;5115936;28;20431;-79
2022/04/03 04:13:05;;;;;;;2.70;2.50;;;2.70;99.90;;;;;;5113869;28;20180;-78
2022/04/03 04:15:49;;;;;;;6.53;3.30;;;2.70;99.90;;;;;;5109922;28;20377;-78
2022/04/03 04:18:36;;;;;;;2.70;2.07;;;2.70;99.90;;;;;;5061455;28;20745;-79
2022/04/03 04:21:21;;;;;;;2.40;2.20;;;2.70;99.90;;;;;;5066749;28;20393;-78
2022/04/03 04:24:05;;;;;;;3.43;2.57;;;2.70;99.90;;;;;;5063524;28;20468;-79
2022/04/03 04:26:50;;;;;;;5.70;3.50;;;2.70;99.90;;;;;;5066856;28;20356;-79
2022/04/03 04:29:34;;;;;;;2.60;2.13;;;2.70;99.90;;;;;;5066109;28;20364;-79
2022/04/03 04:32:21;;;;;;;2.60;2.43;;;2.60;99.90;;;;;;5049362;28;20405;-79
2022/04/03 04:35:06;;;;;;;2.80;2.50;;;2.60;99.90;;;;;;5066548;28;20382;-79
2022/04/03 04:37:51;;;;;;;4.43;3.20;;;2.60;99.90;;;;;;5061773;28;20902;-78
2022/04/03 04:40:35;;;;;;;3.43;2.77;;;2.60;99.90;;;;;;5063303;28;20432;-79
2022/04/03 04:43:20;;;;;;;2.17;1.97;;;2.60;99.90;;;;;;5053210;28;20406;-79
2022/04/03 04:46:04;;;;;;;10.07;2.70;;;2.50;99.90;;;;;;5064783;28;20390;-79
2022/04/03 04:48:49;;;;;;;2.40;2.20;;;2.50;99.90;;;;;;5080145;28;20385;-79
2022/04/03 04:51:34;;;;;;;4.20;2.30;;;2.50;99.90;;;;;;5104688;28;20380;-79
2022/04/03 04:54:18;;;;;;;2.43;2.13;;;2.50;99.90;;;;;;5106055;28;20395;-79
2022/04/03 04:57:05;;;;;;;2.20;2.00;;;2.50;99.90;;;;;;5107166;28;20363;-80
2022/04/03 04:59:50;;;;;;;2.60;1.77;;;2.50;99.90;;;;;;5108368;28;20418;-80
2022/04/03 05:02:35;;;;;;;2.00;1.90;;;2.50;99.90;;;;;;5088938;28;20434;-79
2022/04/03 05:05:22;;;;;;;9.50;3.20;;;2.50;99.90;;;;;;5109704;28;20443;-79
2022/04/03 05:08:07;;;;;;;1.90;1.80;;;2.50;99.90;;;;;;5113373;28;20409;-79
2022/04/03 05:10:53;;;;;;;2.50;2.30;;;2.50;99.90;;;;;;5103717;28;20775;-77
2022/04/03 05:13:39;;;;;;;2.83;2.63;;;2.40;99.90;;;;;;5097353;28;20407;-79
2022/04/03 05:16:24;;;;;;;1.97;1.70;;;2.40;99.90;;;;;;5111944;28;20411;-79
2022/04/03 05:19:12;;;;;;;2.97;2.77;;;2.40;99.90;;;;;;5111797;28;20449;-78
2022/04/03 05:21:56;;;;;;;2.63;2.40;;;2.40;99.90;;;;;;5107139;28;20346;-79
2022/04/03 05:24:44;;;;;;;3.67;2.50;;;2.40;99.90;;;;;;5109782;28;20455;-79
2022/04/03 05:27:28;;;;;;;2.33;2.00;;;2.40;99.90;;;;;;5064275;28;20407;-80
2022/04/03 05:30:13;;;;;;;3.00;2.20;;;2.40;99.90;;;;;;5086718;28;20442;-78
2022/04/03 05:32:58;;;;;;;1.80;1.70;;;2.40;99.90;;;;;;5087946;28;20375;-78
2022/04/03 05:35:42;;;;;;;2.73;2.20;;;2.40;99.90;;;;;;5109752;28;20404;-79
2022/04/03 05:38:27;;;;;;;4.30;2.97;;;2.40;99.90;;;;;;5113902;28;20354;-78
2022/04/03 05:41:12;;;;;;;2.50;2.30;;;2.40;99.90;;;;;;5114625;28;20384;-77
2022/04/03 05:43:56;;;;;;;4.50;2.90;;;2.50;99.90;;;;;;5110917;28;20753;-79
2022/04/03 05:46:41;;;;;;;3.77;2.73;;;2.40;99.90;;;;;;5067918;28;20417;-77
2022/04/03 05:49:26;;;;;;;2.20;2.00;;;2.50;99.90;;;;;;5069640;28;20378;-79
2022/04/03 05:52:10;;;;;;;2.60;2.33;;;2.50;99.90;;;;;;5068032;28;20420;-79
2022/04/03 05:54:55;;;;;;;2.70;2.10;;;2.50;99.90;;;;;;5072293;28;20421;-79
2022/04/03 05:57:40;;;;;;;4.33;3.57;;;2.50;99.90;;;;;;5049712;28;20380;-78
2022/04/03 06:00:27;;;;;;;3.53;2.77;;;2.60;99.90;;;;;;5064820;28;20451;-79
2022/04/03 06:03:12;;;;;;;2.83;2.50;;;2.70;99.90;;;;;;5064084;28;20361;-79
2022/04/03 06:05:56;;;;;;;3.77;2.47;;;2.60;99.90;;;;;;5052626;28;20449;-77
2022/04/03 06:08:41;;;;;;;3.27;3.03;;;2.70;99.90;;;;;;5068579;28;20408;-79
2022/04/03 06:11:26;;;;;;;4.87;3.77;;;2.70;99.90;;;;;;5065500;28;20484;-78
2022/04/03 06:14:10;;;;;;;4.43;3.10;;;2.70;99.90;;;;;;5064679;28;20472;-78
2022/04/03 06:16:55;;;;;;;3.30;3.00;;;2.80;99.90;;;;;;5063508;28;20396;-77
2022/04/03 06:19:40;;;;;;;6.73;3.10;;;2.80;99.90;;;;;;5109436;28;20416;-78
2022/04/03 06:22:24;;;;;;;2.40;2.00;;;2.90;99.90;;;;;;5084767;28;20392;-77
2022/04/03 06:25:09;;;;;;;3.28;2.78;;;3.00;99.90;;;;;;5091480;28;20319;-77
2022/04/03 06:27:58;;;;;;;3.93;3.10;;;3.00;99.90;;;;;;5108631;28;20181;-78
2022/04/03 06:30:44;;;;;;;2.20;2.00;;;3.10;99.90;;;;;;5110869;28;20420;-77
2022/04/03 06:33:28;;;;;;;7.60;2.40;;;3.10;99.90;;;;;;5108413;28;20369;-77
2022/04/03 06:36:13;;;;;;;3.10;2.90;;;3.10;99.90;;;;;;5089328;28;20424;-78
2022/04/03 06:38:57;;;;;;;4.20;2.50;;;3.10;99.90;;;;;;5088914;28;20457;-79
2022/04/03 06:41:42;;;;;;;2.80;2.60;;;3.10;99.90;;;;;;5074498;28;20397;-79
2022/04/03 06:44:27;;;;;;;3.43;2.53;;;3.20;99.90;;;;;;5088966;28;20451;-79
2022/04/03 06:47:12;;;;;;;3.27;2.63;;;3.10;99.90;;;;;;5074852;28;20391;-79
2022/04/03 06:49:56;;;;;;;2.93;2.50;;;3.10;99.90;;;;;;5071012;28;20367;-78
2022/04/03 06:52:44;;;;;;;7.03;4.27;;;3.10;99.90;;;;;;5083919;28;20405;-78
2022/04/03 06:55:28;;;;;;;3.57;3.00;;;3.10;99.90;;;;;;5084218;28;20437;-79
2022/04/03 06:58:13;;;;;;;4.03;2.90;;;3.10;99.90;;;;;;5087532;28;20529;-79
2022/04/03 07:00:57;;;;;;;3.10;2.80;;;3.10;99.90;;;;;;5087579;28;20396;-78
2022/04/03 07:03:41;;;;;;;4.60;3.47;;;3.20;99.90;;;;;;5087279;28;20709;-79
2022/04/03 07:06:29;;;;;;;2.80;2.40;;;3.30;99.90;;;;;;5072661;28;20441;-79
2022/04/03 07:09:13;;;;;;;3.03;2.23;;;3.10;99.90;;;;;;5052532;28;20400;-79
2022/04/03 07:11:58;;;;;;;2.63;2.33;;;2.70;99.90;;;;;;5090677;28;20511;-76
2022/04/03 07:14:43;;;;;;;3.27;2.97;;;3.00;99.90;;;;;;5106664;28;20382;-78
2022/04/03 07:17:28;;;;;;;2.23;2.13;;;3.30;99.90;;;;;;5109228;28;20458;-79
2022/04/03 07:20:13;;;;;;;4.37;2.60;;;3.30;99.90;;;;;;5104473;28;20396;-78
2022/04/03 07:22:57;;;;;;;5.53;2.37;;;3.40;99.90;;;;;;5108862;28;20376;-79
2022/04/03 07:25:41;;;;;;;2.20;2.00;;;3.20;99.90;;;;;;5109776;28;20486;-79
2022/04/03 07:28:26;;;;;;;3.03;2.27;;;2.80;99.90;;;;;;5105157;28;20385;-79
2022/04/03 07:31:11;;;;;;;3.60;2.10;;;3.00;99.90;;;;;;5094678;28;20446;-79
2022/04/03 07:33:55;;;;;;;3.60;2.40;;;2.90;99.90;;;;;;5087635;28;20473;-79
2022/04/03 07:36:41;;;;;;;4.20;2.87;;;3.40;99.90;;;;;;5106198;28;20395;-79
2022/04/03 07:39:26;;;;;;;4.73;2.43;;;3.60;99.90;;;;;;5090929;28;20383;-79
2022/04/03 07:42:10;;;;;;;3.23;2.93;;;3.50;99.90;;;;;;5108548;28;20462;-77
2022/04/03 07:44:55;;;;;;;6.70;2.27;;;3.60;99.90;;;;;;5094117;28;20454;-79
2022/04/03 07:47:54;;;;;;;2.17;1.97;;;2.80;99.90;;;;;;5102415;28;20807;-78
2022/04/03 07:50:39;;;;;;;2.17;1.87;;;3.10;99.90;;;;;;5102016;28;20423;-79
2022/04/03 07:53:23;;;;;;;4.17;3.77;;;3.60;99.90;;;;;;5103467;28;20867;-78
2022/04/03 07:56:08;;;;;;;3.07;2.77;;;3.50;99.90;;;;;;5087046;28;20469;-77
2022/04/03 07:58:53;;;;;;;3.20;2.87;;;3.70;99.90;;;;;;5118083;28;20365;-79
2022/04/03 08:01:37;;;;;;;3.63;2.40;;;3.80;99.90;;;;;;5115482;28;20440;-78
2022/04/03 08:04:22;;;;;;;3.20;2.13;;;3.60;99.90;;;;;;5102678;28;20456;-78
2022/04/03 08:07:07;;;;;;;2.90;2.17;;;3.70;99.90;;;;;;5110832;28;20371;-78
2022/04/03 08:09:52;;;;;;;2.93;2.43;;;4.10;99.90;;;;;;5104828;28;20487;-79
2022/04/03 08:12:37;;;;;;;1.80;1.70;;;4.30;99.90;;;;;;5104895;28;20695;-78
2022/04/03 08:15:22;;;;;;;2.10;2.00;;;4.40;99.90;;;;;;5087346;28;20419;-78
2022/04/03 08:18:07;;;;;;;4.30;3.63;;;3.60;99.90;;;;;;5103329;28;20384;-78
2022/04/03 08:20:52;;;;;;;2.60;2.40;;;3.40;99.90;;;;;;5105781;28;20464;-79
2022/04/03 08:23:37;;;;;;;3.20;2.90;;;4.00;99.90;;;;;;5109576;28;20384;-79
2022/04/03 08:26:26;;;;;;;4.00;2.10;;;4.30;99.90;;;;;;5107764;28;20388;-79
2022/04/03 08:29:10;;;;;;;2.53;2.33;;;4.60;99.90;;;;;;5073873;28;20405;-79
2022/04/03 08:31:54;;;;;;;3.30;2.40;;;4.70;99.90;;;;;;5103340;28;20458;-80
2022/04/03 08:34:40;;;;;;;2.80;2.60;;;4.70;99.90;;;;;;5075290;28;20408;-78
2022/04/03 08:37:24;;;;;;;3.00;2.80;;;4.80;99.90;;;;;;5064953;28;20403;-79
2022/04/03 08:40:10;;;;;;;3.33;2.13;;;4.70;99.90;;;;;;5094627;28;20461;-79
2022/04/03 08:42:56;;;;;;;3.43;2.37;;;4.30;99.90;;;;;;5113961;28;20473;-80
2022/04/03 08:45:41;;;;;;;2.23;2.03;;;4.20;99.90;;;;;;5097554;28;20444;-79
2022/04/03 08:48:30;;;;;;;3.70;2.17;;;3.80;99.90;;;;;;5097302;28;20446;-79
2022/04/03 08:51:16;;;;;;;7.20;3.60;;;3.60;99.90;;;;;;5106653;28;20762;-78
2022/04/03 08:54:01;;;;;;;3.23;1.60;;;4.10;99.90;;;;;;5113003;28;20392;-78
2022/04/03 08:56:45;;;;;;;4.67;3.90;;;4.60;99.90;;;;;;5109111;28;20430;-79
2022/04/03 08:59:30;;;;;;;2.20;2.07;;;5.00;99.90;;;;;;5090928;28;20419;-79
2022/04/03 09:02:15;;;;;;;5.10;2.60;;;5.10;99.90;;;;;;5110578;28;20412;-79
2022/04/03 09:05:00;;;;;;;2.20;2.03;;;5.10;99.90;;;;;;5113417;28;20475;-79
2022/04/03 09:07:59;;;;;;;1.97;1.77;;;5.40;99.90;;;;;;5083833;28;20408;-79
2022/04/03 09:11:05;;;;;;;1.90;1.80;;;5.40;99.90;;;;;;5050188;28;20496;-79
2022/04/03 09:13:50;;;;;;;1.73;1.63;;;5.40;99.90;;;;;;5086161;28;20361;-79
2022/04/03 09:16:39;;;;;;;1.63;1.53;;;5.60;99.90;;;;;;5068404;28;20400;-78
2022/04/03 09:19:36;;;;;;;1.63;1.53;;;5.90;99.90;;;;;;5065044;28;20379;-79
2022/04/03 09:22:28;;;;;;;1.47;1.37;;;5.60;99.90;;;;;;5072308;28;20454;-79
2022/04/03 09:25:16;;;;;;;1.60;1.50;;;5.90;99.90;;;;;;5071837;28;20449;-79
2022/04/03 09:28:07;;;;;;;1.83;1.73;;;5.70;98.90;;;;;;5071242;28;20418;-80
2022/04/03 09:30:54;;;;;;;1.50;1.40;;;6.00;98.40;;;;;;5074506;28;20459;-79
2022/04/03 09:33:39;;;;;;;2.47;1.40;;;6.40;98.80;;;;;;5098480;28;20382;-79
2022/04/03 09:36:24;;;;;;;2.10;1.70;;;6.60;93.80;;;;;;5072311;28;20390;-79
2022/04/03 09:39:12;;;;;;;2.83;1.60;;;6.70;92.80;;;;;;5070650;28;20415;-77
2022/04/03 09:42:01;;;;;;;1.97;1.73;;;6.70;90.50;;;;;;5099095;28;20494;-79
2022/04/03 09:44:49;;;;;;;3.73;1.53;;;6.60;90.80;;;;;;5065508;28;20474;-78
2022/04/03 09:47:35;;;;;;;1.63;1.50;;;6.40;93.10;;;;;;5065766;28;20394;-79
2022/04/03 09:50:19;;;;;;;1.90;1.80;;;6.80;91.10;;;;;;5068543;28;20390;-79
2022/04/03 09:53:04;;;;;;;1.57;1.47;;;6.80;90.40;;;;;;5079106;28;20394;-78
2022/04/03 09:55:48;;;;;;;1.63;1.40;;;6.90;90.20;;;;;;5063330;28;20460;-79
2022/04/03 09:58:58;;;;;;;1.60;1.50;;;6.50;93.20;;;;;;5063418;28;20425;-78
2022/04/03 10:01:43;;;;;;;1.40;1.30;;;7.10;84.40;;;;;;5066459;28;20413;-79
2022/04/03 10:04:27;;;;;;;1.60;1.50;;;7.60;81.10;;;;;;5069765;28;20419;-80
2022/04/03 10:07:20;;;;;;;2.07;1.67;;;6.70;82.40;;;;;;5063559;28;20460;-80
2022/04/03 10:10:05;;;;;;;1.80;1.70;;;7.70;82.00;;;;;;5088975;28;20424;-79
2022/04/03 10:12:49;;;;;;;5.20;2.43;;;8.30;82.90;;;;;;5075379;28;20385;-79
2022/04/03 10:15:34;;;;;;;1.40;1.30;;;8.00;75.50;;;;;;5089859;28;20462;-80
2022/04/03 10:18:19;;;;;;;2.20;2.10;;;8.00;74.90;;;;;;5090655;28;20360;-80
2022/04/03 10:21:12;;;;;;;1.90;1.80;;;7.80;78.90;;;;;;5089749;28;20389;-81
2022/04/03 10:24:05;;;;;;;1.93;1.80;;;6.90;75.70;;;;;;5082396;28;20356;-78
2022/04/03 10:27:04;;;;;;;1.90;1.80;;;7.40;78.10;;;;;;5090709;28;20398;-80
2022/04/03 10:29:57;;;;;;;2.40;1.77;;;8.10;72.40;;;;;;5090706;28;20394;-80
2022/04/03 10:32:56;;;;;;;2.43;2.23;;;9.30;75.90;;;;;;5089039;28;20380;-80
2022/04/03 10:35:48;;;;;;;2.10;1.90;;;7.70;63.10;;;;;;5084159;28;20410;-79
2022/04/03 10:38:37;;;;;;;1.87;1.77;;;8.70;75.90;;;;;;5086076;28;20393;-80
2022/04/03 10:41:34;;;;;;;3.20;2.50;;;9.10;72.90;;;;;;5092322;28;20396;-80
2022/04/03 10:44:22;;;;;;;2.57;2.37;;;10.60;64.90;;;;;;5094018;28;20440;-81
2022/04/03 10:47:21;;;;;;;4.60;2.10;;;10.80;68.10;;;;;;5091396;28;20419;-79
2022/04/03 10:50:08;;;;;;;2.67;2.47;;;10.60;62.60;;;;;;5097238;28;20385;-79
2022/04/03 10:52:55;;;;;;;2.43;2.20;;;10.00;63.30;;;;;;5091343;28;20850;-79
2022/04/03 10:55:40;;;;;;;1.80;1.70;;;10.70;65.30;;;;;;5076325;28;20416;-80
2022/04/03 10:58:37;;;;;;;1.87;1.77;;;12.20;62.00;;;;;;5089530;28;20400;-78
2022/04/03 11:01:28;;;;;;;3.53;2.30;;;12.50;56.80;;;;;;5090048;28;20416;-79
2022/04/03 11:04:13;;;;;;;2.43;2.10;;;11.80;58.00;;;;;;5062558;28;20989;-79
2022/04/03 11:07:13;;;;;;;2.30;1.90;;;13.00;54.40;;;;;;5097361;28;20444;-79
2022/04/03 11:10:01;;;;;;;2.57;2.37;;;12.30;55.90;;;;;;5104258;28;20460;-79
2022/04/03 11:12:55;;;;;;;3.90;1.70;;;11.20;54.50;;;;;;5103872;28;20387;-79
2022/04/03 11:16:02;;;;;;;2.57;2.10;;;11.30;58.30;;;;;;5084282;28;20407;-79
2022/04/03 11:18:50;;;;;;;3.43;1.90;;;11.60;56.10;;;;;;5100190;28;20368;-79
2022/04/03 11:21:37;;;;;;;2.40;2.20;;;10.10;60.90;;;;;;5095262;28;20384;-80
2022/04/03 11:24:24;;;;;;;1.93;1.83;;;9.10;57.90;;;;;;5111138;28;20475;-79
2022/04/03 11:27:09;;;;;;;2.30;2.00;;;11.30;56.50;;;;;;5109762;28;20399;-79
2022/04/03 11:29:54;;;;;;;2.13;1.90;;;11.10;54.50;;;;;;5096041;28;20426;-80
2022/04/03 11:32:44;;;;;;;2.10;2.00;;;11.80;49.60;;;;;;5095081;28;20473;-80
2022/04/03 11:35:38;;;;;;;2.50;2.00;;;9.40;50.60;;;;;;5095968;28;20523;-80
2022/04/03 11:38:32;;;;;;;2.90;2.70;;;10.20;58.00;;;;;;5109802;28;20868;-79
2022/04/03 11:41:20;;;;;;;2.70;2.10;;;9.30;57.10;;;;;;5103591;28;20441;-80
2022/04/03 11:44:19;;;;;;;2.40;1.97;;;8.10;57.60;;;;;;5109495;28;20572;-80
2022/04/03 11:47:05;;;;;;;2.50;2.30;;;9.40;61.40;;;;;;5108778;28;20896;-79
2022/04/03 11:50:11;;;;;;;2.53;2.00;;;9.80;55.60;;;;;;5109054;28;20483;-79
2022/04/03 11:53:08;;;;;;;2.87;1.80;;;11.70;52.20;;;;;;5095162;28;20388;-77
2022/04/03 11:55:52;;;;;;;2.47;2.27;;;11.70;54.70;;;;;;5109969;28;20926;-81
2022/04/03 11:58:40;;;;;;;2.10;1.90;;;10.50;57.90;;;;;;5093384;28;20400;-80
2022/04/03 12:01:34;;;;;;;5.30;2.87;;;11.70;55.90;;;;;;5092794;28;20380;-78
2022/04/03 12:04:21;;;;;;;3.20;2.20;;;12.00;56.70;;;;;;5057085;28;20878;-79
2022/04/03 12:07:13;;;;;;;2.63;2.43;;;12.00;54.90;;;;;;5053296;28;20477;-80
2022/04/03 12:09:58;;;;;;;2.60;2.40;;;12.90;51.60;;;;;;5067799;28;20898;-80
2022/04/03 12:12:43;;;;;;;6.00;2.63;;;14.10;51.70;;;;;;5047573;28;20401;-82
2022/04/03 12:15:33;;;;;;;3.30;3.10;;;14.50;50.30;;;;;;5060121;28;20444;-81
2022/04/03 12:18:17;;;;;;;3.20;2.87;;;11.20;47.50;;;;;;5062771;28;20430;-82
2022/04/03 12:21:02;;;;;;;3.57;2.30;;;10.10;49.30;;;;;;4999151;28;20830;-81
2022/04/03 12:24:05;;;;;;;5.20;2.40;;;11.20;51.80;;;;;;5001469;28;20461;-83
2022/04/03 12:26:54;;;;;;;2.37;2.23;;;12.90;51.00;;;;;;5000695;28;20392;-84
2022/04/03 12:29:41;;;;;;;3.00;2.13;;;13.20;52.70;;;;;;5000030;28;20478;-83
2022/04/03 12:32:36;;;;;;;2.40;2.20;;;14.30;49.10;;;;;;4985191;28;20397;-82
2022/04/03 12:35:20;;;;;;;2.47;2.27;;;14.60;48.00;;;;;;4996220;28;20509;-82
2022/04/03 12:38:08;;;;;;;2.80;2.60;;;14.70;48.60;;;;;;5023444;28;20551;-82
2022/04/03 12:40:58;;;;;;;2.53;2.33;;;14.20;49.40;;;;;;5009979;28;20928;-82
2022/04/03 12:43:44;;;;;;;2.60;2.40;;;13.30;49.80;;;;;;5023821;28;20434;-81
2022/04/03 12:46:37;;;;;;;2.53;2.43;;;13.70;49.50;;;;;;5039025;28;20438;-81
2022/04/03 12:49:22;;;;;;;2.70;2.07;;;14.50;49.00;;;;;;5038602;28;20398;-82
2022/04/03 12:52:06;;;;;;;2.40;2.20;;;14.70;49.60;;;;;;5080431;28;20408;-83
2022/04/03 12:54:51;;;;;;;4.80;2.20;;;15.80;44.80;;;;;;5101816;28;20505;-83
2022/04/03 13:01:00;;;;;;;3.20;2.90;;;17.30;41.90;;;;;;5087872;28;20755;-83
2022/04/03 13:03:49;;;;;;;2.83;2.60;;;17.20;40.70;;;;;;5085694;28;20925;-80
2022/04/03 13:06:35;;;;;;;2.30;2.10;;;16.30;40.70;;;;;;5085030;28;20450;-81
2022/04/03 13:09:19;;;;;;;3.30;2.60;;;15.90;40.20;;;;;;5101994;28;20396;-83
2022/04/03 13:12:06;;;;;;;2.53;2.30;;;15.20;42.10;;;;;;5086820;28;20473;-84
2022/04/03 13:14:50;;;;;;;2.30;1.97;;;14.80;41.10;;;;;;5102692;28;20800;-82
2022/04/03 13:17:35;;;;;;;2.78;2.30;;;15.00;46.80;;;;;;5101350;28;20923;-82
2022/04/03 13:20:20;;;;;;;2.60;2.40;;;14.40;47.10;;;;;;5101877;28;20253;-83
2022/04/03 13:23:06;;;;;;;3.47;3.27;;;14.60;43.10;;;;;;5101790;28;20414;-83
2022/04/03 13:25:53;;;;;;;8.37;6.87;;;14.20;44.30;;;;;;5103687;28;20900;-83
2022/04/03 13:28:56;;;;;;;2.70;2.50;;;13.40;44.60;;;;;;5105168;28;20438;-83
2022/04/03 13:31:41;;;;;;;3.20;2.90;;;13.60;47.10;;;;;;5047043;28;20493;-83
2022/04/03 13:34:27;;;;;;;2.70;2.50;;;12.90;46.40;;;;;;5061038;28;20402;-82
2022/04/03 13:37:12;;;;;;;2.20;2.00;;;12.10;47.40;;;;;;5061927;28;20405;-82
2022/04/03 13:39:57;;;;;;;3.17;2.40;;;10.30;47.60;;;;;;5061708;28;20457;-82
2022/04/03 13:42:43;;;;;;;1.87;1.73;;;9.30;50.00;;;;;;5061834;28;20381;-82
2022/04/03 13:48:25;;;;;;;2.00;1.90;;;10.40;48.60;;;;;;5061673;28;20393;-83
2022/04/03 13:51:31;;;;;;;4.67;2.10;;;9.00;48.00;;;;;;5063109;28;20405;-84
2022/04/03 13:54:18;;;;;;;1.80;1.70;;;8.40;50.50;;;;;;5063026;28;20452;-83
2022/04/03 13:57:03;;;;;;;2.27;2.17;;;11.70;46.30;;;;;;5062595;28;20770;-82
2022/04/03 13:59:51;;;;;;;2.23;1.90;;;12.90;43.90;;;;;;5062479;28;20389;-83
2022/04/03 14:02:36;;;;;;;2.13;1.93;;;12.80;42.50;;;;;;5084290;28;20770;-82
2022/04/03 14:05:20;;;;;;;2.30;2.20;;;11.10;44.00;;;;;;5088599;28;20858;-83
2022/04/03 14:08:07;;;;;;;2.20;2.00;;;12.20;46.80;;;;;;5119771;28;20402;-82
2022/04/03 14:10:52;;;;;;;5.20;3.70;;;13.00;45.90;;;;;;5110898;28;20446;-81
2022/04/03 14:13:37;;;;;;;2.53;2.27;;;13.00;44.30;;;;;;5125142;28;20399;-82
2022/04/03 14:16:21;;;;;;;2.00;1.90;;;15.10;45.00;;;;;;5111011;28;20442;-80
2022/04/03 14:19:05;;;;;;;3.43;2.20;;;15.80;43.10;;;;;;5111559;28;20469;-81
2022/04/03 14:21:50;;;;;;;3.33;2.30;;;15.90;43.60;;;;;;5126429;28;20603;-82
2022/04/03 14:24:36;;;;;;;3.50;1.40;;;14.20;42.60;;;;;;5126423;28;20489;-81
2022/04/03 14:27:21;;;;;;;2.43;1.77;;;13.80;43.60;;;;;;5093565;28;20401;-81
2022/04/03 14:30:07;;;;;;;1.93;1.83;;;13.00;43.20;;;;;;5094631;28;20393;-82
2022/04/03 14:32:52;;;;;;;2.23;2.07;;;12.40;44.50;;;;;;5080513;28;20382;-82
2022/04/03 14:35:39;;;;;;;1.97;1.60;;;11.70;45.70;;;;;;5075889;28;20444;-81
2022/04/03 14:38:26;;;;;;;6.90;2.37;;;11.40;49.00;;;;;;5071772;28;20414;-81
2022/04/03 14:41:11;;;;;;;3.13;2.17;;;11.20;48.50;;;;;;5070459;28;20427;-81
2022/04/03 14:43:57;;;;;;;2.33;2.13;;;10.90;47.30;;;;;;5054458;28;20393;-81